Burns Pinion Ridge Reserve, California Weather observations

Data are for 10 minute period ending at time listed.
 Day   Time   Solar   Ave.   Ave.  Ave.  Vector  Max.   Baro.   Total    
  of    of     Rad.   Air    Rel.  Wind   Wind   Wind  Press.  Precip.   
Year   Day            Temp.  Hum.  Speed  Dir.   Gust                    
2016   (PST)  Kw/m2    F      %     mph   deg.    mph    mb.     in.     
-------------------------------------------------------------------------
 342    5:10   0.00   35.2    66    0.7    74     3.1   873.6    0.00 
 342    5:20   0.00   34.3    68    1.0    87     2.9   873.8    0.00 
 342    5:30   0.00   34.0    70    1.5   113     5.9   874.0    0.00 
 342    5:40   0.00   35.9    69    3.3   113     5.9   874.3    0.00 
 342    5:50   0.00   37.0    67    4.8   121     7.5   874.4    0.00 
 342    6:00   0.00   36.5    69    3.8    91     7.5   874.6    0.00 
 342    6:10   0.00   35.7    69    6.3    48     9.2   874.7    0.00 
 342    6:20   0.00   34.9    71    5.1    59     7.9   874.9    0.00 
 342    6:30   0.00   34.7    72    6.6    47    10.9   875.0    0.00 
 342    6:40   0.00   35.1    71    5.1    25     9.3   875.1    0.00 
 342    6:50   0.00   35.7    70    5.6    16    11.4   875.2    0.00 
 342    7:00   0.01   36.0    69    7.6     2    13.0   875.3    0.00 
 342    7:10   0.04   36.2    68    8.1   358    16.4   875.4    0.00 
 342    7:20   0.07   37.0    62   13.1   357    19.4   875.6    0.00 
 342    7:30   0.08   37.4    58   12.6   348    18.6   875.8    0.00 
 342    7:40   0.07   38.4    49   17.4   349    25.1   875.9    0.00 
 342    7:50   0.09   39.1    41   16.7   344    24.7   876.1    0.00 
 342    8:00   0.08   39.2    40   12.1   343    21.3   876.3    0.00 
 342    8:10   0.08   39.3    40    9.5   351    13.8   876.5    0.00 
 342    8:20   0.08   39.7    39    9.2     2    14.1   876.7    0.00 
 342    8:30   0.09   39.4    39    8.7     6    14.8   876.8    0.00 
 342    8:40   0.11   39.6    39    9.5     1    15.6   877.1    0.00 
 342    8:50   0.11   39.8    39    9.4     6    15.3   877.3    0.00 
 342    9:00   0.12   40.0    39    9.0     4    15.1   877.4    0.00 
 342    9:10   0.17   40.4    37    9.6     1    16.8   877.6    0.00 
 342    9:20   0.16   40.8    37   10.6   356    16.3   877.7    0.00 
 342    9:30   0.17   40.9    36   11.3   356    17.5   877.9    0.00 
 342    9:40   0.17   41.0    35   12.1     4    18.5   877.9    0.00 
 342    9:50   0.26   41.4    34   10.4     1    15.6   878.0    0.00 
 342   10:00   0.38   42.6    33   11.3     1    16.9   878.0    0.00 
 342   10:10   0.22   42.5    32   11.1   358    16.0   878.0    0.00 
 342   10:20   0.19   41.7    32   10.3   360    14.8   878.0    0.00 
 342   10:30   0.41   42.0    32   11.1   357    15.3   877.9    0.00 
 342   10:40   0.43   43.6    30    9.6   355    16.7   877.7    0.00 
 342   10:50   0.48   43.7    30    8.1     6    15.5   877.5    0.00 
 342   11:00   0.33   43.5    31    4.3    31    13.3   877.5    0.00 
 342   11:10   0.50   43.9    30    6.6    32    14.0   877.5    0.00 
 342   11:20   0.50   44.7    30    7.6    32    14.9   877.3    0.00 
 342   11:30   0.28   43.0    31    7.6    49    14.4   877.1    0.00 
 342   11:40   0.62   44.1    30    5.8    38    11.1   876.9    0.00 
 342   11:50   0.58   44.9    29    7.8    31    13.5   876.9    0.00 
 342   12:00   0.70   45.8    29    5.8    31    11.7   876.9    0.00 
 342   12:10   0.62   46.5    28    5.9    16    17.8   876.8    0.00 
 342   12:20   0.47   45.8    28    5.2    19    15.9   876.8    0.00 
 342   12:30   0.42   45.9    28    8.1     3    17.0   876.7    0.00 
 342   12:40   0.46   44.6    29    6.7    30    13.2   876.6    0.00 
 342   12:50   0.63   45.4    28    7.6    53    13.4   876.6    0.00 
 342   13:00   0.67   46.9    28    5.7    41    11.2   876.6    0.00 
 342   13:10   0.61   47.7    27    5.6    32    12.6   876.5    0.00 
 342   13:20   0.62   48.1    26    5.7    22    11.9   876.4    0.00 
 342   13:30   0.51   47.9    25   10.7   359    16.3   876.3    0.00 
 342   13:40   0.48   47.4    25    9.9   349    14.2   876.3    0.00 
 342   13:50   0.44   48.1    24    7.6   357    15.1   876.3    0.00 
 342   14:00   0.42   47.7    24    7.6   354    12.7   876.3    0.00 
 342   14:10   0.40   47.8    24    7.3     2    13.3   876.3    0.00 
 342   14:20   0.37   47.7    24    7.5   356    14.3   876.3    0.00 
 342   14:30   0.35   47.6    24    6.2     9    13.9   876.4    0.00 
 342   14:40   0.32   47.5    25    7.0     1    12.0   876.5    0.00 
 342   14:50   0.29   47.7    24    4.7    13    11.9   876.6    0.00 
 342   15:00   0.27   47.8    25    6.6     1    12.2   876.7    0.00 
 342   15:10   0.24   48.0    24    6.0   353    11.7   876.9    0.00 
 342   15:20   0.20   47.4    25    7.5   357    12.7   876.9    0.00 
 342   15:30   0.17   46.9    26    6.7   358    11.2   877.0    0.00 
 342   15:40   0.15   46.5    26    6.4   354    12.1   877.1    0.00 
 342   15:50   0.11   45.8    26    6.9   357    11.6   877.1    0.00 
 342   16:00   0.10   45.9    26    3.9    29     8.7   877.1    0.00 
 342   16:10   0.05   44.1    28    5.0    17     9.7   877.2    0.00 
 342   16:20   0.02   42.9    29    3.6    24     7.7   877.3    0.00 
 342   16:30   0.01   42.3    29    2.9    24     7.5   877.5    0.00 
 342   16:40   0.00   41.8    30    1.9    32     5.1   877.6    0.00 
 342   16:50   0.00   41.4    30    2.3    46     4.5   877.6    0.00 
 342   17:00   0.00   41.1    31    3.0    50     4.8   877.5    0.00 
 342   17:10   0.00   40.5    31    1.9    37     5.6   877.5    0.00 
 342   17:20   0.00   40.1    32    1.3    41     3.1   877.6    0.00 
 342   17:30   0.00   39.6    32    1.8    12     3.8   877.7    0.00 
 342   17:40   0.00   39.8    32    2.6    16     5.1   877.8    0.00 
 342   17:50   0.00   39.9    32    2.2     4     5.7   878.0    0.00 
 342   18:00   0.00   40.2    32    2.6    40     4.5   878.1    0.00 
 342   18:10   0.00   40.3    32    2.1     1     5.7   878.2    0.00 
 342   18:20   0.00   40.2    32    2.9     5     7.3   878.4    0.00 
 342   18:30   0.00   39.8    32    4.0     7     5.8   878.6    0.00 
 342   18:40   0.00   39.6    33    3.9     6     6.2   878.7    0.00 
 342   18:50   0.00   38.6    34    2.9   356     5.0   878.7    0.00 
 342   19:00   0.00   37.6    34    3.6   356     5.2   878.8    0.00 
 342   19:10   0.00   37.3    35    3.4   356     5.3   878.8    0.00 
 342   19:20   0.00   37.1    35    2.0     9     3.9   878.8    0.00 
 342   19:30   0.00   36.3    36    1.3   324     2.6   878.9    0.00 
 342   19:40   0.00   34.9    38    1.3   328     1.9   878.9    0.00 
 342   19:50   0.00   33.2    40    0.4   336     1.8   878.8    0.00 
 342   20:00   0.00   32.0    41    1.9   322     2.7   878.9    0.00 
 342   20:10   0.00   31.6    43    3.0   328     3.8   879.0    0.00 
 342   20:20   0.00   33.2    41    2.7   320     3.4   879.1    0.00 
 342   20:30   0.00   33.9    40    3.2   347     4.2   879.0    0.00 
 342   20:40   0.00   34.0    39    4.1   357     5.1   879.0    0.00 
 342   20:50   0.00   34.4    38    3.4   359     4.3   879.0    0.00 
 342   21:00   0.00   34.5    38    3.3   346     4.2   879.0    0.00 
 342   21:10   0.00   33.8    39    2.6   316     3.7   879.0    0.00 
 342   21:20   0.00   32.6    40    2.0   324     2.9   879.0    0.00 
 342   21:30   0.00   31.3    42    1.5   328     2.8   879.1    0.00 
 342   21:40   0.00   30.5    43    1.6   332     2.4   879.1    0.00 
 342   21:50   0.00   30.0    44    1.4     0     2.4   879.1    0.00 
 342   22:00   0.00   30.2    44    1.5   333     2.6   879.1    0.00 
 342   22:10   0.00   30.2    44    1.6   333     2.8   879.1    0.00 
 342   22:20   0.00   29.6    45    2.6   336     3.7   879.1    0.00 
 342   22:30   0.00   29.6    46    1.9   348     2.9   878.9    0.00 
 342   22:40   0.00   29.9    45    1.9   347     3.3   878.8    0.00 
 342   22:50   0.00   30.4    44    1.2   346     2.1   878.7    0.00 
 342   23:00   0.00   30.5    44    1.2     3     1.9   878.7    0.00 
 342   23:10   0.00   30.2    44    1.5    10     3.7   878.7    0.00 
 342   23:20   0.00   31.3    42    2.0   292     3.7   878.7    0.00 
 342   23:30   0.00   31.8    41    1.7   304     3.2   878.8    0.00 
 342   23:40   0.00   30.8    43    0.7   339     1.8   878.8    0.00 
 342   23:50   0.00   30.2    43    0.1   220     0.6   878.8    0.00 
 343    0:00   0.00   29.6    44    0.7   327     1.8   878.8    0.00 
 343    0:10   0.00   29.4    45    0.8   327     1.4   878.6    0.00 
 343    0:20   0.00   29.7    44    0.0   310     0.4   878.5    0.00 
 343    0:30   0.00   29.8    44    1.0   157     2.3   878.5    0.00 
 343    0:40   0.00   30.7    43    1.2   158     1.9   878.5    0.00 
 343    0:50   0.00   30.0    44    1.6   170     2.6   878.5    0.00 
 343    1:00   0.00   29.5    45    1.2   139     2.5   878.6    0.00 
 343    1:10   0.00   29.7    45    1.7   166     2.9   878.7    0.00 
 343    1:20   0.00   29.6    45    1.1   136     2.2   878.7    0.00 
 343    1:30   0.00   29.9    44    1.5   157     2.2   878.6    0.00 
 343    1:40   0.00   30.0    44    0.5   136     1.7   878.6    0.00 
 343    1:50   0.00   30.2    43    1.2   140     1.9   878.7    0.00 
 343    2:00   0.00   29.9    43    2.1   143     2.5   878.6    0.00 
 343    2:10   0.00   30.0    44    0.8   143     2.1   878.6    0.00 
 343    2:20   0.00   30.4    42    0.0   143     0.5   878.7    0.00 
 343    2:30   0.00   29.7    43    0.4   324     1.9   878.9    0.00 
 343    2:40   0.00   28.5    45    1.3   341     2.8   878.9    0.00 
 343    2:50   0.00   28.9    45    0.9   311     2.1   878.9    0.00 
 343    3:00   0.00   29.1    45    1.0   290     2.3   878.8    0.00 
 343    3:10   0.00   29.4    45    0.8   266     1.9   878.7    0.00 
 343    3:20   0.00   29.0    45    1.5   295     2.3   878.6    0.00 
 343    3:30   0.00   29.3    45    1.3   355     3.3   878.6    0.00 
 343    3:40   0.00   29.5    44    0.6   188     2.6   878.6    0.00 
 343    3:50   0.00   29.2    44    0.7   287     2.3   878.5    0.00 
 343    4:00   0.00   29.3    44    0.5   270     1.7   878.5    0.00 
 343    4:10   0.00   28.9    45    1.0   346     2.3   878.5    0.00 
 343    4:20   0.00   29.1    45    0.2   334     1.8   878.6    0.00 
 343    4:30   0.00   28.9    45    0.6    30     1.8   878.7    0.00 
 343    4:40   0.00   28.9    46    2.0    17     5.3   878.9    0.00 
 343    4:50   0.00   30.5    42    1.5   323     4.9   879.0    0.00 
 343    5:00   0.00   30.9    42    1.1   262     1.8   879.1    0.00 

Return to Burns Pinion Ridge Reserve graphs page.


Western Regional Climate Center,wrcc@dri.edu